createdAt,value
2022-08-03T00:01:37.379Z,4.30
2022-08-03T00:04:05.246Z,4.22
2022-08-03T00:06:36.754Z,3.28
2022-08-03T00:09:05.555Z,4.05
2022-08-03T00:11:33.181Z,6.68
2022-08-03T00:14:00.093Z,4.00
2022-08-03T00:16:27.660Z,3.47
2022-08-03T00:18:54.424Z,5.57
2022-08-03T00:21:21.350Z,4.25
2022-08-03T00:23:51.507Z,4.00
2022-08-03T00:26:20.472Z,4.78
2022-08-03T00:28:47.612Z,3.83
2022-08-03T00:31:14.441Z,3.47
2022-08-03T00:33:59.751Z,4.95
2022-08-03T00:36:28.237Z,3.63
2022-08-03T00:38:56.312Z,4.80
2022-08-03T00:41:26.184Z,4.55
2022-08-03T00:43:52.980Z,5.18
2022-08-03T00:46:22.688Z,3.90
2022-08-03T00:48:50.839Z,3.38
2022-08-03T00:51:19.567Z,5.15
2022-08-03T00:53:46.542Z,5.45
2022-08-03T00:56:15.232Z,4.10
2022-08-03T00:58:43.527Z,4.97
2022-08-03T01:01:12.359Z,3.72
2022-08-03T01:03:39.754Z,3.88
2022-08-03T01:06:20.009Z,4.75
2022-08-03T01:09:06.218Z,3.97
2022-08-03T01:11:59.892Z,4.90
2022-08-03T01:14:38.280Z,3.83
2022-08-03T01:17:18.327Z,4.57
2022-08-03T01:20:07.316Z,8.10
2022-08-03T01:22:44.863Z,4.68
2022-08-03T01:25:36.452Z,4.30
2022-08-03T01:28:32.380Z,3.75
2022-08-03T01:31:05.199Z,4.13
2022-08-03T01:33:39.273Z,4.93
2022-08-03T01:36:11.985Z,3.67
2022-08-03T01:38:43.879Z,4.20
2022-08-03T01:41:35.220Z,3.75
2022-08-03T01:44:27.357Z,4.20
2022-08-03T01:46:51.575Z,4.15
2022-08-03T01:49:18.479Z,3.95
2022-08-03T01:52:03.000Z,4.20
2022-08-03T01:54:37.103Z,4.95
2022-08-03T01:57:04.710Z,3.47
2022-08-03T01:59:34.431Z,4.55
2022-08-03T02:02:27.972Z,6.22
2022-08-03T02:04:52.464Z,4.90
2022-08-03T02:07:19.939Z,3.85
2022-08-03T02:09:51.563Z,4.15
2022-08-03T02:12:20.645Z,3.67
2022-08-03T02:14:48.725Z,4.43
2022-08-03T02:17:16.834Z,4.40
2022-08-03T02:19:44.648Z,4.32
2022-08-03T02:22:13.708Z,4.85
2022-08-03T02:24:40.883Z,4.75
2022-08-03T02:27:23.162Z,4.10
2022-08-03T02:29:58.227Z,4.30
2022-08-03T02:32:31.452Z,5.90
2022-08-03T02:35:00.569Z,5.22
2022-08-03T02:37:31.457Z,5.88
2022-08-03T02:40:04.136Z,4.80
2022-08-03T02:42:33.206Z,4.72
2022-08-03T02:45:05.414Z,5.47
2022-08-03T02:47:53.903Z,4.40
2022-08-03T02:50:23.483Z,4.45
2022-08-03T02:52:51.958Z,8.32
2022-08-03T02:55:21.857Z,5.25
2022-08-03T02:57:49.991Z,6.85
2022-08-03T03:00:27.121Z,5.97
2022-08-03T03:02:58.027Z,5.03
2022-08-03T03:05:52.795Z,4.20
2022-08-03T03:08:26.186Z,4.40
2022-08-03T03:10:59.928Z,4.68
2022-08-03T03:13:28.833Z,4.63
2022-08-03T03:15:59.575Z,4.18
2022-08-03T03:18:28.687Z,4.75
2022-08-03T03:20:56.203Z,6.13
2022-08-03T03:23:24.774Z,5.40
2022-08-03T03:25:52.774Z,4.65
2022-08-03T03:28:20.769Z,3.97
2022-08-03T03:30:52.706Z,4.95
2022-08-03T03:33:21.783Z,5.35
2022-08-03T03:35:49.320Z,4.30
2022-08-03T03:38:16.236Z,6.10
2022-08-03T03:40:43.600Z,6.40
2022-08-03T03:43:11.913Z,5.57
2022-08-03T03:45:42.937Z,5.03
2022-08-03T03:48:09.774Z,6.65
2022-08-03T03:50:40.830Z,4.60
2022-08-03T03:53:11.033Z,4.80
2022-08-03T03:56:01.518Z,4.88
2022-08-03T03:58:25.697Z,5.05
2022-08-03T04:00:53.885Z,4.32
2022-08-03T04:03:21.044Z,4.97
2022-08-03T04:06:06.716Z,7.90
2022-08-03T04:08:52.020Z,5.70
2022-08-03T04:11:30.428Z,4.43
2022-08-03T04:14:29.469Z,6.22
2022-08-03T04:17:03.021Z,4.60
2022-08-03T04:19:57.565Z,5.68
2022-08-03T04:22:29.687Z,6.50
2022-08-03T04:25:08.120Z,6.03
2022-08-03T04:27:41.536Z,7.10
2022-08-03T04:30:09.620Z,6.65
2022-08-03T04:32:41.807Z,6.85
2022-08-03T04:35:11.013Z,6.70
2022-08-03T04:37:46.071Z,6.35
2022-08-03T04:40:22.806Z,4.47
2022-08-03T04:42:50.296Z,4.75
2022-08-03T04:45:19.182Z,5.50
2022-08-03T04:47:46.819Z,5.07
2022-08-03T04:50:18.151Z,6.40
2022-08-03T04:53:06.048Z,5.22
2022-08-03T04:55:35.409Z,4.82
2022-08-03T04:58:03.897Z,8.18
2022-08-03T05:00:30.751Z,4.70
2022-08-03T05:02:57.820Z,4.10
2022-08-03T05:05:24.833Z,7.18
2022-08-03T05:07:52.069Z,4.47
2022-08-03T05:10:20.090Z,5.88
2022-08-03T05:12:48.662Z,5.93
2022-08-03T05:15:16.125Z,5.72
2022-08-03T05:17:43.367Z,4.28
2022-08-03T05:20:11.186Z,6.55
2022-08-03T05:22:37.967Z,4.63
2022-08-03T05:25:05.228Z,3.92
2022-08-03T05:27:32.018Z,4.10
2022-08-03T05:30:30.733Z,4.13
2022-08-03T05:32:46.600Z,3.03
2022-08-03T05:35:57.736Z,3.03
2022-08-03T05:38:01.082Z,5.13
2022-08-03T05:40:28.402Z,3.83
2022-08-03T05:42:55.175Z,3.08
2022-08-03T05:45:26.606Z,4.32
2022-08-03T05:47:55.201Z,4.40
2022-08-03T05:50:22.123Z,3.53
2022-08-03T05:52:49.077Z,3.97
2022-08-03T05:55:16.631Z,4.57
2022-08-03T05:57:45.742Z,5.45
2022-08-03T06:00:13.268Z,4.70
2022-08-03T06:02:42.823Z,3.03
2022-08-03T06:05:10.146Z,3.97
2022-08-03T06:07:37.042Z,5.03
2022-08-03T06:10:37.409Z,6.57
2022-08-03T06:12:51.710Z,3.33
2022-08-03T06:15:20.906Z,4.03
2022-08-03T06:17:48.818Z,5.15
2022-08-03T06:20:20.271Z,3.20
2022-08-03T06:22:50.938Z,3.20
2022-08-03T06:25:27.409Z,3.47
2022-08-03T06:27:54.167Z,3.47
2022-08-03T06:30:21.594Z,2.80
2022-08-03T06:32:52.152Z,3.33
2022-08-03T06:35:20.055Z,6.95
2022-08-03T06:37:49.769Z,2.60
2022-08-03T06:40:31.436Z,2.45
2022-08-03T06:42:59.445Z,3.22
2022-08-03T06:45:31.687Z,2.17
2022-08-03T06:48:06.141Z,3.33
2022-08-03T06:50:34.300Z,3.72
2022-08-03T06:53:01.855Z,2.72
2022-08-03T06:55:28.924Z,2.67
2022-08-03T06:57:59.764Z,2.53
2022-08-03T07:00:33.671Z,2.05
2022-08-03T07:03:00.485Z,1.60
2022-08-03T07:05:27.484Z,1.70
2022-08-03T07:07:59.438Z,3.30
2022-08-03T07:10:27.622Z,3.20
2022-08-03T07:12:56.535Z,1.20
2022-08-03T07:15:54.327Z,2.05
2022-08-03T07:18:12.040Z,1.80
2022-08-03T07:20:38.885Z,1.63
2022-08-03T07:23:05.718Z,1.73
2022-08-03T07:25:32.543Z,2.42
2022-08-03T07:27:59.666Z,2.22
2022-08-03T07:30:26.502Z,1.55
2022-08-03T07:32:53.281Z,2.60
2022-08-03T07:35:25.138Z,2.30
2022-08-03T07:37:54.721Z,1.88
2022-08-03T07:40:22.813Z,2.10
2022-08-03T07:42:52.157Z,3.10
2022-08-03T07:45:23.292Z,1.48
2022-08-03T07:47:53.598Z,3.03
2022-08-03T07:50:21.459Z,1.30
2022-08-03T07:52:48.870Z,1.20
2022-08-03T07:55:21.736Z,2.67
2022-08-03T07:58:00.727Z,1.30
2022-08-03T08:00:27.717Z,1.92
2022-08-03T08:02:54.480Z,2.40
2022-08-03T08:05:21.323Z,1.52
2022-08-03T08:07:51.114Z,2.67
2022-08-03T08:10:19.082Z,1.73
2022-08-03T08:12:46.391Z,2.05
2022-08-03T08:15:13.501Z,1.98
2022-08-03T08:17:51.805Z,2.50
2022-08-03T08:20:28.129Z,2.15
2022-08-03T08:22:57.946Z,3.08
2022-08-03T08:25:25.569Z,4.28
2022-08-03T08:28:31.597Z,2.60
2022-08-03T08:30:39.425Z,1.05
2022-08-03T08:33:06.177Z,1.60
2022-08-03T08:35:33.004Z,2.35
2022-08-03T08:38:05.907Z,1.40
2022-08-03T08:40:35.658Z,2.10
2022-08-03T08:43:03.148Z,4.10
2022-08-03T08:45:30.062Z,2.15
2022-08-03T08:48:00.990Z,4.85
2022-08-03T08:50:30.269Z,5.60
2022-08-03T08:53:01.958Z,3.50
2022-08-03T08:55:29.792Z,1.35
2022-08-03T08:58:20.832Z,1.70
2022-08-03T09:00:48.509Z,1.58
2022-08-03T09:03:22.665Z,0.85
2022-08-03T09:06:02.173Z,2.15
2022-08-03T09:08:30.559Z,2.70
2022-08-03T09:10:57.800Z,2.67
2022-08-03T09:13:24.826Z,1.77
2022-08-03T09:16:16.515Z,1.30
2022-08-03T09:18:46.776Z,1.30
2022-08-03T09:21:30.776Z,2.08
2022-08-03T09:24:03.744Z,1.02
2022-08-03T09:26:37.425Z,1.75
2022-08-03T09:29:13.287Z,0.95
2022-08-03T09:31:44.406Z,1.25
2022-08-03T09:34:14.072Z,1.13
2022-08-03T09:36:51.538Z,2.75
2022-08-03T09:39:41.420Z,1.13
2022-08-03T09:42:18.683Z,1.77
2022-08-03T09:44:47.955Z,1.30
2022-08-03T09:47:29.068Z,0.93
2022-08-03T09:50:03.273Z,1.27
2022-08-03T09:52:49.201Z,1.55
2022-08-03T09:56:05.105Z,1.90
2022-08-03T09:58:10.278Z,1.67
2022-08-03T10:00:56.536Z,1.08
2022-08-03T10:03:24.780Z,1.58
2022-08-03T10:05:54.809Z,1.70
2022-08-03T10:08:24.956Z,3.33
2022-08-03T10:10:57.936Z,2.60
2022-08-03T10:13:24.727Z,1.35
2022-08-03T10:16:21.521Z,1.33
2022-08-03T10:18:38.357Z,1.58
2022-08-03T10:21:08.666Z,1.08
2022-08-03T10:23:35.618Z,5.68
2022-08-03T10:26:04.188Z,1.92
2022-08-03T10:28:45.338Z,2.88
2022-08-03T10:31:14.405Z,1.15
2022-08-03T10:33:52.833Z,0.98
2022-08-03T10:36:24.670Z,1.58
2022-08-03T10:38:53.682Z,2.78
2022-08-03T10:41:22.077Z,2.03
2022-08-03T10:44:13.244Z,1.25
2022-08-03T10:46:45.016Z,2.70
2022-08-03T10:49:25.466Z,0.70
2022-08-03T10:52:01.092Z,1.10
2022-08-03T10:55:03.609Z,1.63
2022-08-03T10:57:56.230Z,1.90
2022-08-03T11:00:27.636Z,1.17
2022-08-03T11:03:14.398Z,6.43
2022-08-03T11:05:44.245Z,1.77
2022-08-03T11:08:24.143Z,1.65
2022-08-03T11:10:53.523Z,2.45
2022-08-03T11:13:23.008Z,1.17
2022-08-03T11:15:52.573Z,1.10
2022-08-03T11:18:20.251Z,1.63
2022-08-03T11:20:59.625Z,1.50
2022-08-03T11:24:05.593Z,1.05
2022-08-03T11:26:39.750Z,1.27
2022-08-03T11:29:43.215Z,1.50
2022-08-03T11:32:10.581Z,1.90
2022-08-03T11:35:13.817Z,1.33
2022-08-03T11:38:07.258Z,1.98
2022-08-03T11:40:55.776Z,2.13
2022-08-03T11:43:25.723Z,3.60
2022-08-03T11:46:28.504Z,1.30
2022-08-03T11:49:09.275Z,1.48
2022-08-03T11:51:41.449Z,1.10
2022-08-03T11:54:11.925Z,0.95
2022-08-03T11:56:52.358Z,1.05
2022-08-03T11:59:32.496Z,2.92
2022-08-03T12:02:29.863Z,2.35
2022-08-03T12:05:01.511Z,2.42
2022-08-03T12:08:03.310Z,1.40
2022-08-03T12:10:18.069Z,1.88
2022-08-03T12:12:46.870Z,2.55
2022-08-03T12:15:14.875Z,1.23
2022-08-03T12:17:45.174Z,1.15
2022-08-03T12:20:34.490Z,2.55
2022-08-03T12:23:06.121Z,2.13
2022-08-03T12:25:39.347Z,1.63
2022-08-03T12:28:31.822Z,1.55
2022-08-03T12:31:07.703Z,2.47
2022-08-03T12:33:58.725Z,1.80
2022-08-03T12:36:26.939Z,1.52
2022-08-03T12:38:59.053Z,2.22
2022-08-03T12:41:37.951Z,1.25
2022-08-03T12:44:07.038Z,1.73
2022-08-03T12:46:42.734Z,2.60
2022-08-03T12:49:18.757Z,1.65
2022-08-03T12:51:45.663Z,1.33
2022-08-03T12:54:24.503Z,1.15
2022-08-03T12:57:16.275Z,1.08
2022-08-03T12:59:52.624Z,1.80
2022-08-03T13:02:25.563Z,3.53
2022-08-03T13:04:54.697Z,1.30
2022-08-03T13:07:22.642Z,0.95
2022-08-03T13:09:49.731Z,2.38
2022-08-03T13:12:18.360Z,1.45
2022-08-03T13:14:47.971Z,1.38
2022-08-03T13:17:16.791Z,2.97
2022-08-03T13:19:44.279Z,1.70
2022-08-03T13:22:20.147Z,2.92
2022-08-03T13:24:49.374Z,2.78
2022-08-03T13:28:02.117Z,1.27
2022-08-03T13:30:04.697Z,2.35
2022-08-03T13:32:32.541Z,1.65
2022-08-03T13:34:59.595Z,1.52
2022-08-03T13:37:26.731Z,2.28
2022-08-03T13:40:00.327Z,0.80
2022-08-03T13:42:32.003Z,2.13
2022-08-03T13:44:59.653Z,5.18
2022-08-03T13:47:27.138Z,1.67
2022-08-03T13:50:01.695Z,0.73
2022-08-03T13:52:34.277Z,4.82
2022-08-03T13:55:03.216Z,1.88
2022-08-03T13:58:05.098Z,2.72
2022-08-03T14:00:28.213Z,1.73
2022-08-03T14:03:16.394Z,1.05
2022-08-03T14:05:43.790Z,1.65
2022-08-03T14:08:11.356Z,1.70
2022-08-03T14:10:41.076Z,2.08
2022-08-03T14:13:08.509Z,1.27
2022-08-03T14:15:37.208Z,1.40
2022-08-03T14:18:15.485Z,1.20
2022-08-03T14:20:49.049Z,2.25
2022-08-03T14:23:18.572Z,2.53
2022-08-03T14:25:51.460Z,2.55
2022-08-03T14:28:23.302Z,2.70
2022-08-03T14:30:55.768Z,1.88
2022-08-03T14:33:23.353Z,1.17
2022-08-03T14:35:51.863Z,2.15
2022-08-03T14:38:18.710Z,1.40
2022-08-03T14:40:46.288Z,1.30
2022-08-03T14:43:13.210Z,1.17
2022-08-03T14:45:41.200Z,1.67
2022-08-03T14:50:29.393Z,1.10
2022-08-03T14:50:55.389Z,1.95
2022-08-03T14:53:23.027Z,2.45
2022-08-03T14:55:51.927Z,2.38
2022-08-03T14:58:27.692Z,1.10
2022-08-03T15:00:55.543Z,1.08
2022-08-03T15:03:24.715Z,2.55
2022-08-03T15:05:53.638Z,1.33
2022-08-03T15:08:22.094Z,1.35
2022-08-03T15:10:49.795Z,3.20
2022-08-03T15:13:18.134Z,2.40
2022-08-03T15:15:45.083Z,1.50
2022-08-03T15:18:11.952Z,1.27
2022-08-03T15:20:45.078Z,2.85
2022-08-03T15:23:14.743Z,1.55
2022-08-03T15:26:29.355Z,1.50
2022-08-03T15:28:29.653Z,1.30
2022-08-03T15:30:56.575Z,1.67
2022-08-03T15:33:23.470Z,2.40
2022-08-03T15:35:50.350Z,1.48
2022-08-03T15:38:17.589Z,2.63
2022-08-03T15:40:44.775Z,2.05
2022-08-03T15:43:11.808Z,2.25
2022-08-03T15:45:38.578Z,1.33
2022-08-03T15:48:07.024Z,3.88
2022-08-03T15:50:34.311Z,1.58
2022-08-03T15:53:01.120Z,3.75
2022-08-03T15:55:27.988Z,2.25
2022-08-03T15:59:09.608Z,2.65
2022-08-03T16:00:42.968Z,1.42
2022-08-03T16:03:10.551Z,1.80
2022-08-03T16:05:37.474Z,1.77
2022-08-03T16:08:07.094Z,3.13
2022-08-03T16:10:37.182Z,1.35
2022-08-03T16:13:04.007Z,1.38
2022-08-03T16:15:30.810Z,2.42
2022-08-03T16:17:57.575Z,3.53
2022-08-03T16:20:30.804Z,1.75
2022-08-03T16:23:11.037Z,1.25
2022-08-03T16:25:40.813Z,2.65
2022-08-03T16:28:13.561Z,1.85
2022-08-03T16:30:44.290Z,1.65
2022-08-03T16:33:17.004Z,1.20
2022-08-03T16:35:45.871Z,4.22
2022-08-03T16:38:18.159Z,1.63
2022-08-03T16:40:47.178Z,4.22
2022-08-03T16:43:17.828Z,1.73
2022-08-03T16:45:47.068Z,3.47
2022-08-03T16:48:15.304Z,1.88
2022-08-03T16:50:42.123Z,2.05
2022-08-03T16:53:16.438Z,1.95
2022-08-03T16:55:53.556Z,1.77
2022-08-03T16:58:34.594Z,1.25
2022-08-03T17:01:21.636Z,1.90
2022-08-03T17:03:57.195Z,4.25
2022-08-03T17:06:34.307Z,2.25
2022-08-03T17:09:09.072Z,3.08
2022-08-03T17:11:44.065Z,1.85
2022-08-03T17:14:21.986Z,3.03
2022-08-03T17:16:53.822Z,2.22
2022-08-03T17:19:24.471Z,1.48
2022-08-03T17:22:23.886Z,1.23
2022-08-03T17:24:54.397Z,4.68
2022-08-03T17:28:49.098Z,1.83
2022-08-03T17:30:17.534Z,1.60
2022-08-03T17:32:53.470Z,1.33
2022-08-03T17:35:24.048Z,2.60
2022-08-03T17:38:02.540Z,2.67
2022-08-03T17:40:31.855Z,1.60
2022-08-03T17:43:00.682Z,1.65
2022-08-03T17:45:52.313Z,2.67
2022-08-03T17:48:18.368Z,1.30
2022-08-03T17:50:58.998Z,4.03
2022-08-03T17:53:30.571Z,2.40
2022-08-03T17:59:17.773Z,2.58
2022-08-03T18:02:37.975Z,1.52
2022-08-03T18:05:16.535Z,4.25
2022-08-03T18:08:01.731Z,2.45
2022-08-03T18:10:36.086Z,1.80
2022-08-03T18:13:10.962Z,2.33
2022-08-03T18:15:47.082Z,3.60
2022-08-03T18:18:29.310Z,4.68
2022-08-03T18:21:06.711Z,2.50
2022-08-03T18:23:38.556Z,2.22
2022-08-03T18:26:10.763Z,2.80
2022-08-03T18:28:40.638Z,1.80
2022-08-03T18:31:09.903Z,3.25
2022-08-03T18:34:19.400Z,3.08
2022-08-03T18:36:30.007Z,2.55
2022-08-03T18:38:59.694Z,2.75
2022-08-03T18:41:33.398Z,3.22
2022-08-03T18:44:07.286Z,3.00
2022-08-03T18:47:07.001Z,3.70
2022-08-03T18:49:37.454Z,3.20
2022-08-03T18:52:12.639Z,2.95
2022-08-03T18:55:19.754Z,2.72
2022-08-03T18:58:03.377Z,4.03
2022-08-03T19:00:54.156Z,3.63
2022-08-03T19:03:24.658Z,2.75
2022-08-03T19:06:03.144Z,2.10
2022-08-03T19:08:55.801Z,2.00
2022-08-03T19:12:12.796Z,2.45
2022-08-03T19:14:34.761Z,1.23
2022-08-03T19:17:07.709Z,3.90
2022-08-03T19:19:44.208Z,2.38
2022-08-03T19:22:16.079Z,2.35
2022-08-03T19:24:45.936Z,3.67
2022-08-03T19:27:14.186Z,3.33
2022-08-03T19:30:00.091Z,3.17
2022-08-03T19:32:30.837Z,3.90
2022-08-03T19:35:00.230Z,2.38
2022-08-03T19:37:33.178Z,3.88
2022-08-03T19:40:11.000Z,5.38
2022-08-03T19:42:44.384Z,4.88
2022-08-03T19:45:14.671Z,2.83
2022-08-03T19:47:46.167Z,2.90
2022-08-03T19:50:14.763Z,2.85
2022-08-03T19:52:45.007Z,2.90
2022-08-03T19:55:12.311Z,2.20
2022-08-03T19:57:42.991Z,2.63
2022-08-03T20:00:12.687Z,2.30
2022-08-03T20:02:41.369Z,3.92
2022-08-03T20:05:14.923Z,2.95
2022-08-03T20:07:47.711Z,3.22
2022-08-03T20:10:16.616Z,2.38
2022-08-03T20:12:45.332Z,2.28
2022-08-03T20:15:12.606Z,4.22
2022-08-03T20:17:57.104Z,2.17
2022-08-03T20:20:32.645Z,3.13
2022-08-03T20:23:06.667Z,6.95
2022-08-03T20:28:33.408Z,4.20
2022-08-03T20:31:00.399Z,1.85
2022-08-03T20:33:46.315Z,3.55
2022-08-03T20:36:18.052Z,2.78
2022-08-03T20:38:47.688Z,3.67
2022-08-03T20:41:16.704Z,2.15
2022-08-03T20:43:44.285Z,3.78
2022-08-03T20:46:28.511Z,1.80
2022-08-03T20:48:58.934Z,5.97
2022-08-03T20:51:49.776Z,4.38
2022-08-03T20:54:23.002Z,2.30
2022-08-03T20:56:56.658Z,1.95
2022-08-03T20:59:24.509Z,2.15
2022-08-03T21:01:52.038Z,2.22
2022-08-03T21:04:21.737Z,2.50
2022-08-03T21:06:54.255Z,2.40
2022-08-03T21:09:39.771Z,2.72
2022-08-03T21:12:11.977Z,2.33
2022-08-03T21:12:55.925Z,2.35
2022-08-03T21:13:12.044Z,2.50
2022-08-03T21:15:01.464Z,3.83
2022-08-03T21:17:40.434Z,1.90
2022-08-03T21:20:10.295Z,2.90
2022-08-03T21:22:45.317Z,2.38
2022-08-03T21:25:15.249Z,2.85
2022-08-03T21:27:42.407Z,3.60
2022-08-03T21:30:10.936Z,3.15
2022-08-03T21:32:40.880Z,2.05
2022-08-03T21:35:11.646Z,2.63
2022-08-03T21:37:43.150Z,4.13
2022-08-03T21:40:12.216Z,3.30
2022-08-03T21:42:40.221Z,4.80
2022-08-03T21:45:12.838Z,3.40
2022-08-03T21:47:42.501Z,4.28
2022-08-03T21:50:13.046Z,2.72
2022-08-03T21:52:48.570Z,3.00
2022-08-03T21:55:18.549Z,2.55
2022-08-03T21:57:53.221Z,2.85
2022-08-03T22:00:23.331Z,2.53
2022-08-03T22:02:57.465Z,6.78
2022-08-03T22:05:43.051Z,2.45
2022-08-03T22:08:13.663Z,2.63
2022-08-03T22:10:43.688Z,4.47
2022-08-03T22:13:14.271Z,1.70
2022-08-03T22:15:41.546Z,6.85
2022-08-03T22:18:08.386Z,4.30
2022-08-03T22:20:35.273Z,5.03
2022-08-03T22:23:05.026Z,2.88
2022-08-03T22:25:35.507Z,3.17
2022-08-03T22:28:06.140Z,3.47
2022-08-03T22:30:33.729Z,3.10
2022-08-03T22:33:02.947Z,2.63
2022-08-03T22:35:47.288Z,3.15
2022-08-03T22:38:15.429Z,2.03
2022-08-03T22:40:42.564Z,2.38
2022-08-03T22:43:09.631Z,2.38
2022-08-03T22:46:07.427Z,3.03
2022-08-03T22:48:27.778Z,4.05
2022-08-03T22:50:56.202Z,2.35
2022-08-03T22:53:23.320Z,4.72
2022-08-03T22:55:52.124Z,2.25
2022-08-03T22:58:20.922Z,2.95
2022-08-03T23:01:01.699Z,2.20
2022-08-03T23:03:58.653Z,3.72
2022-08-03T23:06:23.835Z,5.22
2022-08-03T23:08:51.141Z,2.80
2022-08-03T23:11:18.855Z,2.10
2022-08-03T23:13:50.074Z,1.77
2022-08-03T23:16:28.910Z,2.63
2022-08-03T23:18:58.774Z,2.25
2022-08-03T23:21:53.643Z,2.00
2022-08-03T23:24:27.499Z,3.83
2022-08-03T23:26:57.059Z,2.22
2022-08-03T23:29:24.424Z,4.30
2022-08-03T23:31:53.548Z,1.73
2022-08-03T23:34:43.225Z,2.10
2022-08-03T23:37:12.859Z,3.10
2022-08-03T23:39:41.825Z,1.92
2022-08-03T23:42:09.740Z,1.70
2022-08-03T23:44:38.023Z,2.22
2022-08-03T23:47:05.205Z,2.78
2022-08-03T23:49:32.251Z,2.95
2022-08-03T23:52:25.339Z,4.05
2022-08-03T23:55:04.145Z,2.05
2022-08-03T23:58:03.437Z,2.40
